Time;durP1;ratioP1;P1;durP2;ratioP2;P2;SDS_P1;SDS_P2;PMS_P1;PMS_P2;Temp;Humidity;BMP_temperature;BMP_pressure;BME280_temperature;BME280_humidity;BME280_pressure;Samples;Min_cycle;Max_cycle;Signal;HPM_P1;HPM_P2
2024/03/31 00:00:26;;;;;;;66.05;7.82;;;;;;;;;;4935117;28;20706;-90
2024/03/31 00:03:32;;;;;;;55.95;6.88;;;;;;;;;;4938733;29;20330;-91
2024/03/31 00:06:37;;;;;;;66.95;7.55;;;;;;;;;;4936197;29;20255;-90
2024/03/31 00:09:46;;;;;;;59.95;6.70;;;;;;;;;;4935308;29;20196;-90
2024/03/31 00:12:51;;;;;;;51.60;7.43;;;;;;;;;;4936849;29;20232;-89
2024/03/31 00:15:55;;;;;;;58.95;6.95;;;;;;;;;;4936645;29;20332;-89
2024/03/31 00:19:00;;;;;;;50.42;6.50;;;;;;;;;;4923123;29;20192;-90
2024/03/31 00:22:06;;;;;;;58.80;7.63;;;;;;;;;;4934457;28;20255;-90
2024/03/31 00:25:11;;;;;;;60.95;7.07;;;;;;;;;;4922033;29;20223;-91
2024/03/31 00:28:16;;;;;;;61.50;7.57;;;;;;;;;;4922403;29;20203;-90
2024/03/31 00:31:20;;;;;;;58.78;7.65;;;;;;;;;;4927064;28;20203;-90
2024/03/31 00:34:25;;;;;;;62.83;6.93;;;;;;;;;;4943315;29;20264;-89
2024/03/31 00:37:32;;;;;;;60.47;7.18;;;;;;;;;;4943583;29;20311;-90
2024/03/31 00:40:37;;;;;;;58.42;6.47;;;;;;;;;;4946014;28;20218;-89
2024/03/31 00:43:42;;;;;;;50.33;6.45;;;;;;;;;;4944942;28;20252;-90
2024/03/31 00:46:46;;;;;;;56.90;6.65;;;;;;;;;;4945470;28;20230;-90
2024/03/31 00:49:51;;;;;;;55.50;7.70;;;;;;;;;;4944095;28;20686;-89
2024/03/31 00:52:57;;;;;;;50.60;6.57;;;;;;;;;;4943851;28;20190;-90
2024/03/31 00:56:02;;;;;;;64.70;6.40;;;;;;;;;;4944122;29;20183;-90
2024/03/31 00:59:07;;;;;;;54.67;6.60;;;;;;;;;;4943562;28;20545;-91
2024/03/31 01:02:12;;;;;;;56.78;6.30;;;;;;;;;;4944135;29;20191;-89
2024/03/31 01:05:16;;;;;;;59.78;6.60;;;;;;;;;;4943641;29;20203;-90
2024/03/31 01:08:23;;;;;;;59.58;6.63;;;;;;;;;;4942793;29;20195;-90
2024/03/31 01:11:27;;;;;;;57.17;6.80;;;;;;;;;;4934219;29;20235;-91
2024/03/31 01:14:33;;;;;;;48.97;7.00;;;;;;;;;;4924679;28;20187;-89
2024/03/31 01:17:37;;;;;;;48.25;6.10;;;;;;;;;;4922923;29;20191;-91
2024/03/31 01:20:43;;;;;;;50.50;6.15;;;;;;;;;;4925141;29;20214;-89
2024/03/31 01:24:04;;;;;;;64.40;6.53;;;;;;;;;;4926542;29;20239;-89
2024/03/31 01:27:08;;;;;;;53.53;5.60;;;;;;;;;;4928072;29;20212;-90
2024/03/31 01:30:13;;;;;;;53.47;5.93;;;;;;;;;;4937837;29;20187;-90
2024/03/31 01:33:17;;;;;;;58.65;6.10;;;;;;;;;;4946364;29;20299;-90
2024/03/31 01:36:22;;;;;;;45.85;6.20;;;;;;;;;;4947867;29;20210;-90
2024/03/31 01:39:28;;;;;;;42.70;6.18;;;;;;;;;;4946994;29;20638;-89
2024/03/31 01:42:33;;;;;;;62.53;11.63;;;;;;;;;;4946355;28;20621;-90
2024/03/31 01:45:37;;;;;;;50.30;6.47;;;;;;;;;;4947383;29;20187;-90
2024/03/31 01:48:42;;;;;;;56.47;6.80;;;;;;;;;;4945854;29;20564;-90
2024/03/31 01:51:48;;;;;;;59.95;6.70;;;;;;;;;;4945024;28;20194;-90
2024/03/31 01:54:53;;;;;;;47.97;7.47;;;;;;;;;;4927290;29;20195;-90
2024/03/31 01:57:58;;;;;;;51.08;6.70;;;;;;;;;;4940083;29;20355;-90
2024/03/31 02:01:02;;;;;;;62.47;5.93;;;;;;;;;;4928452;29;20228;-89
2024/03/31 02:04:09;;;;;;;57.05;6.70;;;;;;;;;;4927905;29;20211;-90
2024/03/31 02:07:13;;;;;;;50.33;6.63;;;;;;;;;;4927432;28;20562;-91
2024/03/31 02:10:20;;;;;;;54.88;6.57;;;;;;;;;;4926935;29;20219;-92
2024/03/31 02:13:24;;;;;;;55.65;9.05;;;;;;;;;;4926619;29;20228;-90
2024/03/31 02:16:29;;;;;;;55.10;7.18;;;;;;;;;;4925481;29;20208;-89
2024/03/31 02:19:33;;;;;;;67.30;7.13;;;;;;;;;;4925931;29;20238;-88
2024/03/31 02:22:38;;;;;;;56.97;6.30;;;;;;;;;;4934963;29;20219;-88
2024/03/31 02:25:44;;;;;;;59.53;5.95;;;;;;;;;;4937191;29;20200;-90
2024/03/31 02:28:49;;;;;;;54.17;6.55;;;;;;;;;;4953466;29;20326;-89
2024/03/31 02:31:53;;;;;;;55.53;6.60;;;;;;;;;;4945350;28;20186;-90
2024/03/31 02:34:58;;;;;;;64.50;17.35;;;;;;;;;;4945231;29;20240;-90
2024/03/31 02:38:02;;;;;;;65.75;7.85;;;;;;;;;;4944014;29;20187;-87
2024/03/31 02:41:09;;;;;;;62.40;8.18;;;;;;;;;;4944876;29;20215;-89
2024/03/31 02:44:17;;;;;;;63.78;6.82;;;;;;;;;;4945099;29;20580;-90
2024/03/31 02:47:22;;;;;;;51.25;6.82;;;;;;;;;;4945117;29;20231;-89
2024/03/31 02:50:27;;;;;;;66.15;8.30;;;;;;;;;;4944689;29;20195;-89
2024/03/31 02:53:32;;;;;;;47.10;7.35;;;;;;;;;;4926651;29;20257;-90
2024/03/31 02:56:38;;;;;;;60.25;7.80;;;;;;;;;;4936636;29;20688;-89
2024/03/31 02:59:43;;;;;;;53.72;7.45;;;;;;;;;;4937237;29;20191;-89
2024/03/31 03:02:47;;;;;;;46.67;6.38;;;;;;;;;;4936630;29;20196;-89
2024/03/31 03:05:54;;;;;;;58.15;6.90;;;;;;;;;;4940539;29;20206;-89
2024/03/31 03:09:01;;;;;;;57.38;7.45;;;;;;;;;;4946147;29;20195;-89
2024/03/31 03:12:08;;;;;;;57.00;6.45;;;;;;;;;;4945660;29;20625;-89
2024/03/31 03:15:12;;;;;;;51.67;5.93;;;;;;;;;;4945909;29;20238;-90
2024/03/31 03:18:19;;;;;;;65.55;6.53;;;;;;;;;;4945136;29;20218;-88
2024/03/31 03:21:27;;;;;;;56.85;6.80;;;;;;;;;;4945624;29;20263;-89
2024/03/31 03:24:33;;;;;;;64.30;7.30;;;;;;;;;;4945249;29;20231;-90
2024/03/31 03:27:38;;;;;;;63.65;6.43;;;;;;;;;;4944326;28;20199;-91
2024/03/31 03:30:45;;;;;;;47.47;5.75;;;;;;;;;;4945855;28;20635;-89
2024/03/31 03:33:51;;;;;;;63.40;6.85;;;;;;;;;;4946925;28;20643;-89
2024/03/31 03:36:56;;;;;;;71.88;6.47;;;;;;;;;;4945510;28;20195;-90
2024/03/31 03:40:02;;;;;;;59.50;6.18;;;;;;;;;;4946878;28;20594;-90
2024/03/31 03:43:10;;;;;;;62.72;8.02;;;;;;;;;;4945500;29;20330;-89
2024/03/31 03:46:20;;;;;;;63.20;8.00;;;;;;;;;;4945334;28;20195;-89
2024/03/31 03:49:26;;;;;;;72.72;12.55;;;;;;;;;;4925004;29;20192;-90
2024/03/31 03:52:31;;;;;;;63.55;8.30;;;;;;;;;;4937172;28;20187;-91
2024/03/31 03:55:36;;;;;;;54.63;5.47;;;;;;;;;;4926251;29;20203;-90
2024/03/31 03:58:42;;;;;;;58.78;6.45;;;;;;;;;;4925100;29;20203;-90
2024/03/31 04:01:47;;;;;;;54.30;7.32;;;;;;;;;;4943756;29;20235;-91
2024/03/31 04:04:52;;;;;;;67.03;7.97;;;;;;;;;;4925767;29;20244;-88
2024/03/31 04:07:56;;;;;;;64.50;6.85;;;;;;;;;;4937965;29;20753;-89
2024/03/31 04:11:02;;;;;;;55.60;7.15;;;;;;;;;;4926412;29;20242;-89
2024/03/31 04:14:07;;;;;;;42.20;5.93;;;;;;;;;;4946413;29;20211;-90
2024/03/31 04:17:13;;;;;;;51.75;5.95;;;;;;;;;;4945276;28;20203;-91
2024/03/31 04:20:18;;;;;;;56.05;6.97;;;;;;;;;;4956210;29;20203;-91
2024/03/31 04:23:22;;;;;;;71.45;6.93;;;;;;;;;;4957114;29;20604;-91
2024/03/31 04:26:28;;;;;;;52.25;7.05;;;;;;;;;;4944804;29;20209;-91
2024/03/31 04:29:33;;;;;;;52.30;6.03;;;;;;;;;;4945002;29;20232;-89
2024/03/31 04:32:39;;;;;;;49.10;6.45;;;;;;;;;;4943717;29;20530;-89
2024/03/31 04:35:43;;;;;;;52.83;6.28;;;;;;;;;;4955352;29;20183;-87
2024/03/31 04:38:49;;;;;;;57.88;7.28;;;;;;;;;;4945669;29;20211;-90
2024/03/31 04:41:54;;;;;;;61.05;7.35;;;;;;;;;;4956770;29;20219;-89
2024/03/31 04:45:00;;;;;;;47.97;6.70;;;;;;;;;;4943805;29;20195;-90
2024/03/31 04:48:04;;;;;;;50.40;6.75;;;;;;;;;;4941710;29;20234;-90
2024/03/31 04:51:11;;;;;;;52.88;6.55;;;;;;;;;;4943518;28;20179;-91
2024/03/31 04:54:16;;;;;;;56.55;6.70;;;;;;;;;;4943913;29;20191;-90
2024/03/31 04:57:24;;;;;;;70.43;7.30;;;;;;;;;;4942693;29;20679;-92
2024/03/31 05:00:30;;;;;;;69.18;8.02;;;;;;;;;;4945123;28;20190;-88
2024/03/31 05:03:35;;;;;;;54.30;6.72;;;;;;;;;;4956271;28;20207;-87
2024/03/31 05:06:40;;;;;;;47.40;6.72;;;;;;;;;;4944394;28;20686;-89
2024/03/31 05:09:45;;;;;;;46.70;6.70;;;;;;;;;;4925832;28;20199;-91
2024/03/31 05:12:49;;;;;;;47.97;5.80;;;;;;;;;;4925337;28;20582;-90
2024/03/31 05:16:00;;;;;;;50.65;5.95;;;;;;;;;;4936365;29;20228;-91
2024/03/31 05:19:04;;;;;;;70.63;8.55;;;;;;;;;;4922729;29;20192;-89
2024/03/31 05:22:11;;;;;;;54.72;7.30;;;;;;;;;;4940275;29;20558;-88
2024/03/31 05:25:16;;;;;;;83.10;6.72;;;;;;;;;;4942288;28;20199;-90
2024/03/31 05:28:21;;;;;;;62.58;7.25;;;;;;;;;;4941528;29;20663;-90
2024/03/31 05:31:27;;;;;;;56.53;7.45;;;;;;;;;;4941341;29;20191;-89
2024/03/31 05:34:52;;;;;;;73.28;9.90;;;;;;;;;;4943663;29;20323;-90
2024/03/31 05:37:57;;;;;;;57.03;8.00;;;;;;;;;;4944402;28;20255;-91
2024/03/31 05:41:02;;;;;;;63.35;7.22;;;;;;;;;;4944217;28;20239;-90
2024/03/31 05:44:07;;;;;;;51.67;7.03;;;;;;;;;;4945284;28;20632;-90
2024/03/31 05:47:14;;;;;;;62.58;7.20;;;;;;;;;;4944292;29;20199;-89
2024/03/31 05:50:18;;;;;;;83.60;8.88;;;;;;;;;;4944225;28;20196;-90
2024/03/31 05:53:23;;;;;;;62.40;6.80;;;;;;;;;;4925570;28;20250;-88
2024/03/31 05:56:29;;;;;;;53.40;7.32;;;;;;;;;;4924502;28;20336;-91
2024/03/31 05:59:34;;;;;;;78.65;7.78;;;;;;;;;;4934484;29;20211;-90
2024/03/31 06:02:41;;;;;;;61.65;6.47;;;;;;;;;;4944847;28;20207;-90
2024/03/31 06:05:47;;;;;;;66.10;7.03;;;;;;;;;;4945223;29;20316;-91
2024/03/31 06:08:52;;;;;;;49.35;7.25;;;;;;;;;;4946607;28;20211;-89
2024/03/31 06:11:58;;;;;;;66.20;7.22;;;;;;;;;;4940040;28;20223;-91
2024/03/31 06:15:02;;;;;;;56.05;7.07;;;;;;;;;;4927188;29;20331;-90
2024/03/31 06:18:09;;;;;;;63.42;8.55;;;;;;;;;;4927902;29;20215;-90
2024/03/31 06:21:14;;;;;;;67.72;8.60;;;;;;;;;;4929288;29;20215;-90
2024/03/31 06:24:18;;;;;;;57.35;6.20;;;;;;;;;;4936582;28;20195;-91
2024/03/31 06:27:24;;;;;;;69.00;8.70;;;;;;;;;;4945983;28;20204;-89
2024/03/31 06:30:29;;;;;;;69.88;8.27;;;;;;;;;;4945527;29;20192;-90
2024/03/31 06:33:37;;;;;;;74.07;7.43;;;;;;;;;;4946222;29;20187;-90
2024/03/31 06:36:42;;;;;;;58.65;7.40;;;;;;;;;;4947259;28;20188;-90
2024/03/31 06:39:47;;;;;;;77.68;7.85;;;;;;;;;;4943983;29;20208;-91
2024/03/31 06:42:51;;;;;;;66.53;7.03;;;;;;;;;;4928068;28;20321;-91
2024/03/31 06:45:57;;;;;;;62.63;7.72;;;;;;;;;;4926961;29;20448;-89
2024/03/31 06:49:03;;;;;;;57.90;7.93;;;;;;;;;;4928293;29;20633;-90
2024/03/31 06:52:08;;;;;;;58.40;7.55;;;;;;;;;;4932555;28;20631;-90
2024/03/31 06:55:14;;;;;;;74.15;7.43;;;;;;;;;;4928627;28;20203;-89
2024/03/31 06:58:18;;;;;;;69.18;8.48;;;;;;;;;;4927918;29;20290;-90
2024/03/31 07:01:24;;;;;;;62.03;7.40;;;;;;;;;;4928386;28;20214;-89
2024/03/31 07:04:29;;;;;;;48.75;6.28;;;;;;;;;;4927738;28;20203;-91
2024/03/31 07:07:35;;;;;;;61.95;7.32;;;;;;;;;;4927931;29;20188;-89
2024/03/31 07:10:39;;;;;;;60.33;7.22;;;;;;;;;;4929239;29;20215;-88
2024/03/31 07:13:46;;;;;;;66.18;7.63;;;;;;;;;;4929177;28;20276;-89
2024/03/31 07:16:50;;;;;;;78.70;7.93;;;;;;;;;;4929905;28;20188;-91
2024/03/31 07:19:57;;;;;;;65.22;7.22;;;;;;;;;;4927710;28;20195;-90
2024/03/31 07:23:02;;;;;;;57.85;7.72;;;;;;;;;;4930101;28;20235;-91
2024/03/31 07:26:07;;;;;;;72.13;8.48;;;;;;;;;;4930059;29;20217;-91
2024/03/31 07:29:14;;;;;;;70.00;8.27;;;;;;;;;;4941633;28;20207;-90
2024/03/31 07:32:19;;;;;;;65.90;7.07;;;;;;;;;;4948556;29;20186;-89
2024/03/31 07:35:26;;;;;;;77.00;7.70;;;;;;;;;;4947275;29;20212;-90
2024/03/31 07:38:31;;;;;;;83.57;7.85;;;;;;;;;;4946363;29;20215;-90
2024/03/31 07:41:35;;;;;;;85.18;8.45;;;;;;;;;;4943729;28;20223;-89
2024/03/31 07:44:40;;;;;;;57.88;7.75;;;;;;;;;;4928745;28;20294;-90
2024/03/31 07:47:44;;;;;;;70.45;7.93;;;;;;;;;;4928697;28;20667;-91
2024/03/31 07:50:51;;;;;;;72.28;8.63;;;;;;;;;;4940869;28;20202;-90
2024/03/31 07:53:55;;;;;;;74.05;8.02;;;;;;;;;;4948076;29;20190;-89
2024/03/31 07:57:00;;;;;;;75.65;7.82;;;;;;;;;;4947018;29;20183;-91
2024/03/31 08:00:05;;;;;;;76.03;9.00;;;;;;;;;;4948363;28;20203;-90
2024/03/31 08:03:17;;;;;;;68.50;8.90;;;;;;;;;;4946192;28;20725;-90
2024/03/31 08:06:25;;;;;;;68.32;9.43;;;;;;;;;;4948670;28;20187;-90
2024/03/31 08:09:29;;;;;;;61.97;7.63;;;;;;;;;;4945714;28;20191;-90
2024/03/31 08:12:35;;;;;;;77.13;7.95;;;;;;;;;;4946811;28;20210;-91
2024/03/31 08:15:41;;;;;;;76.07;7.95;;;;;;;;;;4947756;28;20175;-91
2024/03/31 08:18:46;;;;;;;68.43;8.05;;;;;;;;;;4948169;28;20243;-90
2024/03/31 08:21:52;;;;;;;63.13;7.50;;;;;;;;;;4945317;29;20238;-88
2024/03/31 08:24:57;;;;;;;95.30;8.70;;;;;;;;;;4945959;29;20258;-90
2024/03/31 08:28:02;;;;;;;71.05;8.85;;;;;;;;;;4928256;29;20219;-91
2024/03/31 08:31:06;;;;;;;67.47;8.45;;;;;;;;;;4927206;28;20224;-91
2024/03/31 08:34:12;;;;;;;61.45;7.95;;;;;;;;;;4928836;28;20188;-90
2024/03/31 08:37:18;;;;;;;63.28;8.30;;;;;;;;;;4928222;28;20200;-89
2024/03/31 08:40:24;;;;;;;69.75;8.10;;;;;;;;;;4927252;29;20243;-90
2024/03/31 08:43:34;;;;;;;77.65;8.60;;;;;;;;;;4945278;28;20635;-91
2024/03/31 08:46:38;;;;;;;70.20;7.97;;;;;;;;;;4951370;28;20195;-91
2024/03/31 08:49:48;;;;;;;80.20;8.50;;;;;;;;;;4952128;28;20203;-92
2024/03/31 08:52:55;;;;;;;72.03;8.05;;;;;;;;;;4949490;28;20207;-93
2024/03/31 08:55:59;;;;;;;82.55;8.52;;;;;;;;;;4947661;28;20331;-91
2024/03/31 08:59:05;;;;;;;76.97;8.73;;;;;;;;;;4941899;28;20255;-91
2024/03/31 09:02:13;;;;;;;75.68;7.55;;;;;;;;;;4959398;28;20210;-93
2024/03/31 09:05:19;;;;;;;66.70;8.02;;;;;;;;;;4947511;28;20243;-90
2024/03/31 09:08:26;;;;;;;74.95;8.07;;;;;;;;;;4968083;28;20191;-94
2024/03/31 09:11:31;;;;;;;76.35;8.05;;;;;;;;;;4944199;28;20226;-92
2024/03/31 09:14:37;;;;;;;71.97;8.57;;;;;;;;;;4949519;28;20199;-91
2024/03/31 09:17:42;;;;;;;74.57;8.60;;;;;;;;;;4947772;28;20187;-92
2024/03/31 09:20:47;;;;;;;63.28;8.85;;;;;;;;;;4949760;29;20203;-90
2024/03/31 09:23:54;;;;;;;68.53;7.70;;;;;;;;;;4948344;28;20226;-92
2024/03/31 09:27:03;;;;;;;68.60;8.15;;;;;;;;;;4930258;29;20200;-91
2024/03/31 09:30:09;;;;;;;68.35;7.85;;;;;;;;;;4940942;28;20242;-93
2024/03/31 09:33:16;;;;;;;73.18;9.05;;;;;;;;;;4964266;28;20206;-94
2024/03/31 09:36:30;;;;;;;68.32;8.63;;;;;;;;;;4943301;28;20230;-91
2024/03/31 09:39:36;;;;;;;71.82;8.02;;;;;;;;;;4943658;29;20256;-94
2024/03/31 09:42:42;;;;;;;70.25;8.70;;;;;;;;;;4949766;29;20230;-94
2024/03/31 09:45:46;;;;;;;56.90;7.57;;;;;;;;;;4949836;28;20198;-93
2024/03/31 09:48:52;;;;;;;57.42;7.82;;;;;;;;;;4936956;29;20260;-92
2024/03/31 09:51:57;;;;;;;82.43;8.32;;;;;;;;;;4952859;29;20265;-93
2024/03/31 09:55:08;;;;;;;64.30;8.40;;;;;;;;;;4951072;28;20206;-93
2024/03/31 09:58:13;;;;;;;72.05;8.70;;;;;;;;;;4950482;29;20207;-93
2024/03/31 10:01:19;;;;;;;66.30;8.45;;;;;;;;;;4950428;28;20210;-92
2024/03/31 10:04:26;;;;;;;73.38;8.20;;;;;;;;;;4952933;28;20251;-92
2024/03/31 10:07:32;;;;;;;73.57;8.82;;;;;;;;;;4953159;28;20216;-93
2024/03/31 10:10:44;;;;;;;86.28;8.65;;;;;;;;;;4951642;28;20215;-93
2024/03/31 10:13:49;;;;;;;67.65;8.90;;;;;;;;;;4951846;28;20327;-96
2024/03/31 10:16:54;;;;;;;83.70;9.38;;;;;;;;;;4953547;28;20175;-93
2024/03/31 10:20:02;;;;;;;86.40;8.25;;;;;;;;;;4951169;28;20251;-95
2024/03/31 10:23:07;;;;;;;71.45;8.70;;;;;;;;;;4950747;29;20227;-94
2024/03/31 10:26:17;;;;;;;80.78;9.40;;;;;;;;;;4951699;28;20666;-93
2024/03/31 10:29:22;;;;;;;71.20;9.85;;;;;;;;;;4952385;28;20686;-94
2024/03/31 10:32:27;;;;;;;71.65;8.57;;;;;;;;;;4961879;28;20555;-95
2024/03/31 10:35:34;;;;;;;59.45;8.05;;;;;;;;;;4951318;28;20171;-95
2024/03/31 10:38:45;;;;;;;95.22;10.55;;;;;;;;;;4955666;28;20179;-92
2024/03/31 11:34:40;;;;;;;75.15;8.85;;;;;;;;;;5619786;23;20322;-91
2024/03/31 11:37:44;;;;;;;79.63;9.32;;;;;;;;;;4949457;28;20187;-92
2024/03/31 11:40:50;;;;;;;91.63;9.18;;;;;;;;;;4949646;28;20231;-92
2024/03/31 11:43:54;;;;;;;110.70;15.38;;;;;;;;;;4959350;28;20226;-93
2024/03/31 11:47:00;;;;;;;89.45;15.77;;;;;;;;;;4946034;29;20194;-92
2024/03/31 11:50:07;;;;;;;80.70;10.13;;;;;;;;;;4949054;28;20179;-92
2024/03/31 11:53:13;;;;;;;85.32;10.48;;;;;;;;;;4946534;29;20267;-92
2024/03/31 11:56:17;;;;;;;72.25;8.93;;;;;;;;;;4952465;28;20200;-92
2024/03/31 11:59:23;;;;;;;67.07;9.25;;;;;;;;;;4951848;28;20195;-91
2024/03/31 12:02:28;;;;;;;69.13;8.77;;;;;;;;;;4963442;28;20219;-91
2024/03/31 12:05:34;;;;;;;86.78;12.18;;;;;;;;;;4959097;28;20248;-92
2024/03/31 12:08:40;;;;;;;89.72;10.00;;;;;;;;;;4950369;28;20191;-91
2024/03/31 12:11:45;;;;;;;70.38;8.68;;;;;;;;;;4946962;28;20191;-91
2024/03/31 12:14:50;;;;;;;96.28;10.55;;;;;;;;;;4946914;28;20250;-90
2024/03/31 12:17:58;;;;;;;79.68;8.95;;;;;;;;;;4946893;28;20223;-91
2024/03/31 12:21:05;;;;;;;88.47;9.38;;;;;;;;;;4945527;28;20223;-90
2024/03/31 12:24:12;;;;;;;72.60;7.95;;;;;;;;;;4959020;28;20292;-91
2024/03/31 12:27:16;;;;;;;62.53;9.05;;;;;;;;;;4957743;28;20191;-92
2024/03/31 12:30:27;;;;;;;70.18;8.32;;;;;;;;;;4948163;28;20207;-91
2024/03/31 12:33:31;;;;;;;77.47;8.10;;;;;;;;;;4948033;28;20200;-91
2024/03/31 12:36:38;;;;;;;70.20;7.93;;;;;;;;;;4944364;28;20190;-91
2024/03/31 12:39:43;;;;;;;71.75;9.02;;;;;;;;;;4946406;28;20187;-92
2024/03/31 12:42:46;;;;;;;64.88;7.57;;;;;;;;;;4946508;28;20234;-91
2024/03/31 12:45:52;;;;;;;77.72;8.68;;;;;;;;;;4945067;28;20217;-91
2024/03/31 22:02:35;;;;;;;11.80;2.75;;;;;;;;;;6165551;22;1350352;-91
2024/03/31 22:05:39;;;;;;;6.95;2.20;;;;;;;;;;6196081;23;20167;-90
2024/03/31 22:08:45;;;;;;;8.48;2.20;;;;;;;;;;6213485;23;20207;-91
2024/03/31 22:11:49;;;;;;;4.72;2.05;;;;;;;;;;6196144;23;20176;-91
2024/03/31 22:14:54;;;;;;;6.82;1.73;;;;;;;;;;6195148;23;20292;-91
2024/03/31 22:17:59;;;;;;;7.65;1.48;;;;;;;;;;6194214;23;20171;-92
2024/03/31 22:21:05;;;;;;;8.20;1.80;;;;;;;;;;6194632;23;20184;-91
2024/03/31 22:24:10;;;;;;;3.83;1.52;;;;;;;;;;6211542;23;20168;-90
2024/03/31 22:27:15;;;;;;;3.72;1.48;;;;;;;;;;6195089;23;20152;-91
2024/03/31 22:30:19;;;;;;;7.32;1.80;;;;;;;;;;6212994;23;20299;-91
2024/03/31 22:33:27;;;;;;;4.82;1.70;;;;;;;;;;6195324;23;20204;-90
2024/03/31 22:36:32;;;;;;;5.78;1.63;;;;;;;;;;6213384;23;20152;-91
2024/03/31 22:39:36;;;;;;;4.75;1.85;;;;;;;;;;6195183;23;20704;-90
2024/03/31 22:42:42;;;;;;;4.93;1.42;;;;;;;;;;6194101;23;20239;-91
2024/03/31 22:45:46;;;;;;;6.22;1.50;;;;;;;;;;6196543;23;20172;-90
2024/03/31 22:48:53;;;;;;;9.07;1.40;;;;;;;;;;6193636;23;20203;-90
2024/03/31 22:51:56;;;;;;;6.18;1.45;;;;;;;;;;6193743;23;20168;-90
2024/03/31 22:55:01;;;;;;;6.18;1.60;;;;;;;;;;6195034;23;20160;-90
2024/03/31 22:58:05;;;;;;;6.47;1.33;;;;;;;;;;6192180;23;20191;-91
2024/03/31 23:01:11;;;;;;;4.70;1.20;;;;;;;;;;6193867;23;20230;-91
2024/03/31 23:04:16;;;;;;;2.47;1.15;;;;;;;;;;6194710;23;20168;-90
2024/03/31 23:07:21;;;;;;;8.40;2.05;;;;;;;;;;6194873;23;20172;-90
2024/03/31 23:10:26;;;;;;;6.68;1.40;;;;;;;;;;6194413;23;20175;-90
2024/03/31 23:13:31;;;;;;;3.53;1.40;;;;;;;;;;6195938;23;20286;-90
2024/03/31 23:16:35;;;;;;;3.90;1.20;;;;;;;;;;6195349;23;20172;-91
2024/03/31 23:19:42;;;;;;;5.03;1.13;;;;;;;;;;6196033;23;20168;-91
2024/03/31 23:22:46;;;;;;;3.33;1.40;;;;;;;;;;6194867;23;20191;-90
2024/03/31 23:25:51;;;;;;;4.30;1.20;;;;;;;;;;6195053;23;20163;-90
2024/03/31 23:28:55;;;;;;;3.13;1.23;;;;;;;;;;6196544;23;20180;-91
2024/03/31 23:32:00;;;;;;;5.43;1.30;;;;;;;;;;6194279;23;20163;-91
2024/03/31 23:35:06;;;;;;;4.90;1.05;;;;;;;;;;6194980;23;20179;-91
2024/03/31 23:38:13;;;;;;;6.50;1.40;;;;;;;;;;6192847;23;20504;-92
2024/03/31 23:41:17;;;;;;;2.25;1.00;;;;;;;;;;6193425;23;20199;-90
2024/03/31 23:44:22;;;;;;;4.32;1.40;;;;;;;;;;6193307;23;20640;-90
2024/03/31 23:47:26;;;;;;;5.78;1.20;;;;;;;;;;6192281;23;20160;-90
2024/03/31 23:50:33;;;;;;;4.85;1.40;;;;;;;;;;6194487;23;20171;-89
2024/03/31 23:53:37;;;;;;;4.82;1.55;;;;;;;;;;6196381;23;20168;-91
2024/03/31 23:56:42;;;;;;;9.75;1.35;;;;;;;;;;6196494;23;20168;-91
2024/03/31 23:59:46;;;;;;;8.18;1.55;;;;;;;;;;6194938;23;20174;-91
